sensor_id;sensor_type;location;lat;lon;timestamp;P1;durP1;ratioP1;P2;durP2;ratioP2
36585;SDS011;22591;48.314;11.562;2022-12-11T00:00:43;62.22;;;36.10;;
36585;SDS011;22591;48.314;11.562;2022-12-11T00:03:09;61.85;;;33.22;;
36585;SDS011;22591;48.314;11.562;2022-12-11T00:05:37;64.78;;;35.35;;
36585;SDS011;22591;48.314;11.562;2022-12-11T00:08:03;62.13;;;34.78;;
36585;SDS011;22591;48.314;11.562;2022-12-11T00:10:29;59.95;;;35.22;;
36585;SDS011;22591;48.314;11.562;2022-12-11T00:12:55;63.50;;;34.67;;
36585;SDS011;22591;48.314;11.562;2022-12-11T00:15:20;56.92;;;33.70;;
36585;SDS011;22591;48.314;11.562;2022-12-11T00:17:46;57.28;;;31.13;;
36585;SDS011;22591;48.314;11.562;2022-12-11T00:20:12;59.20;;;33.72;;
36585;SDS011;22591;48.314;11.562;2022-12-11T00:22:37;49.28;;;30.40;;
36585;SDS011;22591;48.314;11.562;2022-12-11T00:25:03;54.33;;;32.55;;
36585;SDS011;22591;48.314;11.562;2022-12-11T00:27:29;56.08;;;33.35;;
36585;SDS011;22591;48.314;11.562;2022-12-11T00:29:54;49.55;;;29.40;;
36585;SDS011;22591;48.314;11.562;2022-12-11T00:32:20;50.17;;;30.17;;
36585;SDS011;22591;48.314;11.562;2022-12-11T00:34:45;52.97;;;28.88;;
36585;SDS011;22591;48.314;11.562;2022-12-11T00:37:11;45.17;;;28.17;;
36585;SDS011;22591;48.314;11.562;2022-12-11T00:39:36;45.83;;;28.42;;
36585;SDS011;22591;48.314;11.562;2022-12-11T00:42:03;46.33;;;29.40;;
36585;SDS011;22591;48.314;11.562;2022-12-11T00:44:30;46.67;;;28.10;;
36585;SDS011;22591;48.314;11.562;2022-12-11T00:46:55;46.88;;;28.27;;
36585;SDS011;22591;48.314;11.562;2022-12-11T00:49:21;43.67;;;26.58;;
36585;SDS011;22591;48.314;11.562;2022-12-11T00:51:46;41.67;;;27.13;;
36585;SDS011;22591;48.314;11.562;2022-12-11T00:54:12;41.50;;;26.55;;
36585;SDS011;22591;48.314;11.562;2022-12-11T00:56:37;40.75;;;25.77;;
36585;SDS011;22591;48.314;11.562;2022-12-11T00:59:03;44.10;;;26.63;;
36585;SDS011;22591;48.314;11.562;2022-12-11T01:01:29;41.92;;;25.65;;
36585;SDS011;22591;48.314;11.562;2022-12-11T01:03:54;40.05;;;25.15;;
36585;SDS011;22591;48.314;11.562;2022-12-11T01:06:21;39.15;;;25.23;;
36585;SDS011;22591;48.314;11.562;2022-12-11T01:08:49;40.22;;;25.42;;
36585;SDS011;22591;48.314;11.562;2022-12-11T01:11:39;39.45;;;24.48;;
36585;SDS011;22591;48.314;11.562;2022-12-11T01:14:05;38.38;;;24.52;;
36585;SDS011;22591;48.314;11.562;2022-12-11T01:16:32;38.90;;;25.67;;
36585;SDS011;22591;48.314;11.562;2022-12-11T01:18:57;39.22;;;25.58;;
36585;SDS011;22591;48.314;11.562;2022-12-11T01:21:23;36.70;;;24.23;;
36585;SDS011;22591;48.314;11.562;2022-12-11T01:23:49;42.63;;;26.92;;
36585;SDS011;22591;48.314;11.562;2022-12-11T01:26:15;44.20;;;27.13;;
36585;SDS011;22591;48.314;11.562;2022-12-11T01:28:42;38.97;;;24.95;;
36585;SDS011;22591;48.314;11.562;2022-12-11T01:31:12;41.65;;;25.55;;
36585;SDS011;22591;48.314;11.562;2022-12-11T01:33:40;39.67;;;26.55;;
36585;SDS011;22591;48.314;11.562;2022-12-11T01:36:07;41.85;;;26.15;;
36585;SDS011;22591;48.314;11.562;2022-12-11T01:38:39;37.70;;;24.40;;
36585;SDS011;22591;48.314;11.562;2022-12-11T01:41:05;39.38;;;24.90;;
36585;SDS011;22591;48.314;11.562;2022-12-11T01:43:32;38.20;;;24.50;;
36585;SDS011;22591;48.314;11.562;2022-12-11T01:45:58;34.45;;;23.48;;
36585;SDS011;22591;48.314;11.562;2022-12-11T01:48:33;41.10;;;26.13;;
36585;SDS011;22591;48.314;11.562;2022-12-11T01:50:59;43.42;;;26.00;;
36585;SDS011;22591;48.314;11.562;2022-12-11T01:53:36;36.88;;;24.02;;
36585;SDS011;22591;48.314;11.562;2022-12-11T01:56:05;36.88;;;23.25;;
36585;SDS011;22591;48.314;11.562;2022-12-11T01:58:33;37.65;;;24.15;;
36585;SDS011;22591;48.314;11.562;2022-12-11T02:01:03;36.97;;;24.45;;
36585;SDS011;22591;48.314;11.562;2022-12-11T02:03:28;32.03;;;22.05;;
36585;SDS011;22591;48.314;11.562;2022-12-11T02:05:58;35.42;;;23.45;;
36585;SDS011;22591;48.314;11.562;2022-12-11T02:08:24;31.13;;;21.83;;
36585;SDS011;22591;48.314;11.562;2022-12-11T02:11:10;32.55;;;22.77;;
36585;SDS011;22591;48.314;11.562;2022-12-11T02:13:51;26.00;;;18.13;;
36585;SDS011;22591;48.314;11.562;2022-12-11T02:19:07;29.10;;;19.48;;
36585;SDS011;22591;48.314;11.562;2022-12-11T02:21:47;24.33;;;18.20;;
36585;SDS011;22591;48.314;11.562;2022-12-11T02:27:10;22.05;;;14.43;;
36585;SDS011;22591;48.314;11.562;2022-12-11T02:32:24;21.88;;;15.40;;
36585;SDS011;22591;48.314;11.562;2022-12-11T02:34:55;19.75;;;15.10;;
36585;SDS011;22591;48.314;11.562;2022-12-11T02:37:28;19.35;;;14.85;;
36585;SDS011;22591;48.314;11.562;2022-12-11T02:39:56;21.67;;;15.48;;
36585;SDS011;22591;48.314;11.562;2022-12-11T02:42:22;21.90;;;15.57;;
36585;SDS011;22591;48.314;11.562;2022-12-11T02:44:52;20.63;;;14.80;;
36585;SDS011;22591;48.314;11.562;2022-12-11T02:47:20;19.20;;;15.05;;
36585;SDS011;22591;48.314;11.562;2022-12-11T02:49:49;19.17;;;15.55;;
36585;SDS011;22591;48.314;11.562;2022-12-11T02:52:16;22.17;;;15.18;;
36585;SDS011;22591;48.314;11.562;2022-12-11T02:54:44;20.52;;;14.98;;
36585;SDS011;22591;48.314;11.562;2022-12-11T02:59:47;16.77;;;12.82;;
36585;SDS011;22591;48.314;11.562;2022-12-11T03:02:12;19.52;;;14.93;;
36585;SDS011;22591;48.314;11.562;2022-12-11T03:04:39;16.15;;;13.55;;
36585;SDS011;22591;48.314;11.562;2022-12-11T03:07:07;16.83;;;13.88;;
36585;SDS011;22591;48.314;11.562;2022-12-11T03:09:40;16.77;;;12.95;;
36585;SDS011;22591;48.314;11.562;2022-12-11T03:12:08;16.25;;;13.57;;
36585;SDS011;22591;48.314;11.562;2022-12-11T03:14:36;17.50;;;13.15;;
36585;SDS011;22591;48.314;11.562;2022-12-11T03:17:11;15.45;;;13.10;;
36585;SDS011;22591;48.314;11.562;2022-12-11T03:19:43;16.48;;;12.98;;
36585;SDS011;22591;48.314;11.562;2022-12-11T03:22:20;15.35;;;13.20;;
36585;SDS011;22591;48.314;11.562;2022-12-11T03:25:11;16.15;;;12.68;;
36585;SDS011;22591;48.314;11.562;2022-12-11T03:27:47;15.45;;;12.32;;
36585;SDS011;22591;48.314;11.562;2022-12-11T03:30:21;13.82;;;11.95;;
36585;SDS011;22591;48.314;11.562;2022-12-11T03:32:55;14.95;;;11.68;;
36585;SDS011;22591;48.314;11.562;2022-12-11T03:35:34;15.18;;;12.02;;
36585;SDS011;22591;48.314;11.562;2022-12-11T03:38:15;16.27;;;13.77;;
36585;SDS011;22591;48.314;11.562;2022-12-11T03:40:47;16.02;;;13.40;;
36585;SDS011;22591;48.314;11.562;2022-12-11T03:43:15;17.60;;;13.85;;
36585;SDS011;22591;48.314;11.562;2022-12-11T03:45:42;16.30;;;13.23;;
36585;SDS011;22591;48.314;11.562;2022-12-11T03:48:10;15.65;;;13.35;;
36585;SDS011;22591;48.314;11.562;2022-12-11T03:50:39;15.13;;;13.00;;
36585;SDS011;22591;48.314;11.562;2022-12-11T03:53:06;18.38;;;14.20;;
36585;SDS011;22591;48.314;11.562;2022-12-11T03:55:32;18.00;;;15.20;;
36585;SDS011;22591;48.314;11.562;2022-12-11T03:58:01;19.98;;;14.70;;
36585;SDS011;22591;48.314;11.562;2022-12-11T04:00:27;17.20;;;14.02;;
36585;SDS011;22591;48.314;11.562;2022-12-11T04:02:53;21.42;;;15.85;;
36585;SDS011;22591;48.314;11.562;2022-12-11T04:05:37;20.00;;;14.75;;
36585;SDS011;22591;48.314;11.562;2022-12-11T04:08:07;19.77;;;15.68;;
36585;SDS011;22591;48.314;11.562;2022-12-11T04:10:32;21.73;;;16.83;;
36585;SDS011;22591;48.314;11.562;2022-12-11T04:12:58;24.38;;;16.58;;
36585;SDS011;22591;48.314;11.562;2022-12-11T04:15:24;21.27;;;15.93;;
36585;SDS011;22591;48.314;11.562;2022-12-11T04:17:49;22.25;;;16.52;;
36585;SDS011;22591;48.314;11.562;2022-12-11T04:20:33;23.40;;;16.23;;
36585;SDS011;22591;48.314;11.562;2022-12-11T04:23:17;21.20;;;16.85;;
36585;SDS011;22591;48.314;11.562;2022-12-11T04:26:03;24.02;;;17.08;;
36585;SDS011;22591;48.314;11.562;2022-12-11T04:28:47;24.23;;;17.80;;
36585;SDS011;22591;48.314;11.562;2022-12-11T04:31:14;25.88;;;17.55;;
36585;SDS011;22591;48.314;11.562;2022-12-11T04:33:41;24.38;;;16.83;;
36585;SDS011;22591;48.314;11.562;2022-12-11T04:36:08;27.45;;;18.83;;
36585;SDS011;22591;48.314;11.562;2022-12-11T04:38:34;24.08;;;17.02;;
36585;SDS011;22591;48.314;11.562;2022-12-11T04:41:01;23.73;;;17.27;;
36585;SDS011;22591;48.314;11.562;2022-12-11T04:43:35;24.38;;;17.85;;
36585;SDS011;22591;48.314;11.562;2022-12-11T04:46:01;25.88;;;17.00;;
36585;SDS011;22591;48.314;11.562;2022-12-11T04:48:34;22.38;;;17.27;;
36585;SDS011;22591;48.314;11.562;2022-12-11T04:51:01;24.98;;;18.08;;
36585;SDS011;22591;48.314;11.562;2022-12-11T04:53:27;22.65;;;16.85;;
36585;SDS011;22591;48.314;11.562;2022-12-11T04:55:53;23.52;;;17.60;;
36585;SDS011;22591;48.314;11.562;2022-12-11T04:58:19;23.38;;;17.55;;
36585;SDS011;22591;48.314;11.562;2022-12-11T05:00:44;22.65;;;17.20;;
36585;SDS011;22591;48.314;11.562;2022-12-11T05:03:10;22.10;;;17.05;;
36585;SDS011;22591;48.314;11.562;2022-12-11T05:05:36;25.90;;;18.27;;
36585;SDS011;22591;48.314;11.562;2022-12-11T05:08:01;27.67;;;18.15;;
36585;SDS011;22591;48.314;11.562;2022-12-11T05:10:27;24.85;;;17.60;;
36585;SDS011;22591;48.314;11.562;2022-12-11T05:12:52;27.27;;;18.90;;
36585;SDS011;22591;48.314;11.562;2022-12-11T05:15:18;28.02;;;17.58;;
36585;SDS011;22591;48.314;11.562;2022-12-11T05:17:44;24.35;;;16.98;;
36585;SDS011;22591;48.314;11.562;2022-12-11T05:20:09;26.33;;;19.25;;
36585;SDS011;22591;48.314;11.562;2022-12-11T05:22:35;27.38;;;18.77;;
36585;SDS011;22591;48.314;11.562;2022-12-11T05:25:02;26.95;;;18.65;;
36585;SDS011;22591;48.314;11.562;2022-12-11T05:27:28;24.48;;;17.23;;
36585;SDS011;22591;48.314;11.562;2022-12-11T05:29:54;24.70;;;17.70;;
36585;SDS011;22591;48.314;11.562;2022-12-11T05:32:19;24.92;;;17.55;;
36585;SDS011;22591;48.314;11.562;2022-12-11T05:34:45;25.88;;;18.48;;
36585;SDS011;22591;48.314;11.562;2022-12-11T05:37:10;26.67;;;18.40;;
36585;SDS011;22591;48.314;11.562;2022-12-11T05:39:36;25.55;;;18.25;;
36585;SDS011;22591;48.314;11.562;2022-12-11T05:42:02;23.05;;;17.20;;
36585;SDS011;22591;48.314;11.562;2022-12-11T05:44:28;26.63;;;17.52;;
36585;SDS011;22591;48.314;11.562;2022-12-11T05:46:54;24.50;;;17.35;;
36585;SDS011;22591;48.314;11.562;2022-12-11T05:49:19;28.33;;;17.55;;
36585;SDS011;22591;48.314;11.562;2022-12-11T05:51:45;24.38;;;17.63;;
36585;SDS011;22591;48.314;11.562;2022-12-11T05:54:12;26.65;;;17.17;;
36585;SDS011;22591;48.314;11.562;2022-12-11T05:56:38;25.63;;;17.42;;
36585;SDS011;22591;48.314;11.562;2022-12-11T05:59:03;24.50;;;16.77;;
36585;SDS011;22591;48.314;11.562;2022-12-11T06:01:34;27.27;;;18.20;;
36585;SDS011;22591;48.314;11.562;2022-12-11T06:06:28;28.48;;;18.00;;
36585;SDS011;22591;48.314;11.562;2022-12-11T06:08:54;25.42;;;18.20;;
36585;SDS011;22591;48.314;11.562;2022-12-11T06:11:21;25.83;;;17.50;;
36585;SDS011;22591;48.314;11.562;2022-12-11T06:13:47;25.35;;;17.42;;
36585;SDS011;22591;48.314;11.562;2022-12-11T06:16:13;28.70;;;18.65;;
36585;SDS011;22591;48.314;11.562;2022-12-11T06:18:40;28.17;;;17.45;;
36585;SDS011;22591;48.314;11.562;2022-12-11T06:23:37;30.38;;;20.23;;
36585;SDS011;22591;48.314;11.562;2022-12-11T06:26:03;31.77;;;20.55;;
36585;SDS011;22591;48.314;11.562;2022-12-11T06:28:28;26.80;;;19.70;;
36585;SDS011;22591;48.314;11.562;2022-12-11T06:30:57;28.40;;;19.42;;
36585;SDS011;22591;48.314;11.562;2022-12-11T06:33:23;32.15;;;20.15;;
36585;SDS011;22591;48.314;11.562;2022-12-11T06:35:49;29.00;;;19.23;;
36585;SDS011;22591;48.314;11.562;2022-12-11T06:38:15;31.45;;;20.58;;
36585;SDS011;22591;48.314;11.562;2022-12-11T06:40:41;33.13;;;22.63;;
36585;SDS011;22591;48.314;11.562;2022-12-11T06:43:06;33.55;;;21.90;;
36585;SDS011;22591;48.314;11.562;2022-12-11T06:45:32;35.40;;;22.45;;
36585;SDS011;22591;48.314;11.562;2022-12-11T06:47:57;34.10;;;22.05;;
36585;SDS011;22591;48.314;11.562;2022-12-11T06:50:23;35.03;;;21.73;;
36585;SDS011;22591;48.314;11.562;2022-12-11T06:52:49;38.20;;;23.33;;
36585;SDS011;22591;48.314;11.562;2022-12-11T06:55:14;38.40;;;23.05;;
36585;SDS011;22591;48.314;11.562;2022-12-11T06:57:40;37.15;;;24.25;;
36585;SDS011;22591;48.314;11.562;2022-12-11T07:00:06;39.17;;;24.70;;
36585;SDS011;22591;48.314;11.562;2022-12-11T07:02:32;35.08;;;22.77;;
36585;SDS011;22591;48.314;11.562;2022-12-11T07:04:58;36.08;;;22.92;;
36585;SDS011;22591;48.314;11.562;2022-12-11T07:07:23;39.75;;;25.70;;
36585;SDS011;22591;48.314;11.562;2022-12-11T07:09:49;41.70;;;25.67;;
36585;SDS011;22591;48.314;11.562;2022-12-11T07:12:15;44.50;;;26.63;;
36585;SDS011;22591;48.314;11.562;2022-12-11T07:14:41;39.20;;;25.75;;
36585;SDS011;22591;48.314;11.562;2022-12-11T07:17:06;35.05;;;23.45;;
36585;SDS011;22591;48.314;11.562;2022-12-11T07:19:32;38.55;;;25.42;;
36585;SDS011;22591;48.314;11.562;2022-12-11T07:21:58;34.67;;;23.48;;
36585;SDS011;22591;48.314;11.562;2022-12-11T07:24:23;32.47;;;21.65;;
36585;SDS011;22591;48.314;11.562;2022-12-11T07:26:49;35.03;;;22.10;;
36585;SDS011;22591;48.314;11.562;2022-12-11T07:29:16;37.25;;;23.55;;
36585;SDS011;22591;48.314;11.562;2022-12-11T07:31:42;38.78;;;24.85;;
36585;SDS011;22591;48.314;11.562;2022-12-11T07:34:10;40.08;;;24.95;;
36585;SDS011;22591;48.314;11.562;2022-12-11T07:36:36;37.33;;;24.58;;
36585;SDS011;22591;48.314;11.562;2022-12-11T07:39:02;41.38;;;24.92;;
36585;SDS011;22591;48.314;11.562;2022-12-11T07:41:27;43.13;;;25.10;;
36585;SDS011;22591;48.314;11.562;2022-12-11T07:43:53;36.60;;;23.52;;
36585;SDS011;22591;48.314;11.562;2022-12-11T07:46:21;33.75;;;23.73;;
36585;SDS011;22591;48.314;11.562;2022-12-11T07:48:48;38.17;;;23.88;;
36585;SDS011;22591;48.314;11.562;2022-12-11T07:51:18;39.00;;;24.33;;
36585;SDS011;22591;48.314;11.562;2022-12-11T07:53:51;40.28;;;24.88;;
36585;SDS011;22591;48.314;11.562;2022-12-11T07:56:17;36.50;;;25.02;;
36585;SDS011;22591;48.314;11.562;2022-12-11T07:58:43;35.28;;;23.58;;
36585;SDS011;22591;48.314;11.562;2022-12-11T08:01:10;37.88;;;24.25;;
36585;SDS011;22591;48.314;11.562;2022-12-11T08:03:37;34.28;;;22.17;;
36585;SDS011;22591;48.314;11.562;2022-12-11T08:06:04;31.60;;;21.55;;
36585;SDS011;22591;48.314;11.562;2022-12-11T08:08:30;33.88;;;22.25;;
36585;SDS011;22591;48.314;11.562;2022-12-11T08:10:59;32.35;;;23.38;;
36585;SDS011;22591;48.314;11.562;2022-12-11T08:13:25;31.48;;;21.20;;
36585;SDS011;22591;48.314;11.562;2022-12-11T08:15:51;33.85;;;21.00;;
36585;SDS011;22591;48.314;11.562;2022-12-11T08:18:17;33.47;;;23.27;;
36585;SDS011;22591;48.314;11.562;2022-12-11T08:20:42;34.75;;;23.65;;
36585;SDS011;22591;48.314;11.562;2022-12-11T08:23:08;32.83;;;22.33;;
36585;SDS011;22591;48.314;11.562;2022-12-11T08:25:34;33.45;;;23.17;;
36585;SDS011;22591;48.314;11.562;2022-12-11T08:28:01;29.67;;;22.05;;
36585;SDS011;22591;48.314;11.562;2022-12-11T08:30:26;28.88;;;21.00;;
36585;SDS011;22591;48.314;11.562;2022-12-11T08:32:52;31.73;;;20.60;;
36585;SDS011;22591;48.314;11.562;2022-12-11T08:35:17;30.77;;;21.85;;
36585;SDS011;22591;48.314;11.562;2022-12-11T08:37:43;30.60;;;21.58;;
36585;SDS011;22591;48.314;11.562;2022-12-11T08:40:08;31.05;;;21.35;;
36585;SDS011;22591;48.314;11.562;2022-12-11T08:42:34;28.05;;;21.50;;
36585;SDS011;22591;48.314;11.562;2022-12-11T08:45:00;30.75;;;22.55;;
36585;SDS011;22591;48.314;11.562;2022-12-11T08:47:26;29.55;;;21.90;;
36585;SDS011;22591;48.314;11.562;2022-12-11T08:49:51;29.23;;;20.17;;
36585;SDS011;22591;48.314;11.562;2022-12-11T08:52:17;32.42;;;22.52;;
36585;SDS011;22591;48.314;11.562;2022-12-11T08:54:42;37.47;;;23.88;;
36585;SDS011;22591;48.314;11.562;2022-12-11T08:57:08;32.42;;;22.38;;
36585;SDS011;22591;48.314;11.562;2022-12-11T08:59:33;30.60;;;21.85;;
36585;SDS011;22591;48.314;11.562;2022-12-11T09:01:59;32.17;;;22.80;;
36585;SDS011;22591;48.314;11.562;2022-12-11T09:04:24;31.80;;;21.95;;
36585;SDS011;22591;48.314;11.562;2022-12-11T09:06:50;34.95;;;23.67;;
36585;SDS011;22591;48.314;11.562;2022-12-11T09:09:15;35.05;;;22.77;;
36585;SDS011;22591;48.314;11.562;2022-12-11T09:11:41;34.92;;;23.45;;
36585;SDS011;22591;48.314;11.562;2022-12-11T09:14:07;37.08;;;24.60;;
36585;SDS011;22591;48.314;11.562;2022-12-11T09:16:33;37.92;;;24.70;;
36585;SDS011;22591;48.314;11.562;2022-12-11T09:19:02;28.23;;;21.23;;
36585;SDS011;22591;48.314;11.562;2022-12-11T09:21:28;28.80;;;21.08;;
36585;SDS011;22591;48.314;11.562;2022-12-11T09:23:55;28.33;;;20.10;;
36585;SDS011;22591;48.314;11.562;2022-12-11T09:26:22;25.10;;;19.58;;
36585;SDS011;22591;48.314;11.562;2022-12-11T09:28:48;28.80;;;20.13;;
36585;SDS011;22591;48.314;11.562;2022-12-11T09:31:19;31.63;;;21.83;;
36585;SDS011;22591;48.314;11.562;2022-12-11T09:33:47;26.92;;;20.23;;
36585;SDS011;22591;48.314;11.562;2022-12-11T09:36:14;27.50;;;20.65;;
36585;SDS011;22591;48.314;11.562;2022-12-11T09:38:40;30.02;;;20.77;;
36585;SDS011;22591;48.314;11.562;2022-12-11T09:46:26;29.53;;;21.50;;
36585;SDS011;22591;48.314;11.562;2022-12-11T09:48:52;28.65;;;20.58;;
36585;SDS011;22591;48.314;11.562;2022-12-11T09:54:11;25.27;;;19.88;;
36585;SDS011;22591;48.314;11.562;2022-12-11T09:56:41;26.77;;;20.33;;
36585;SDS011;22591;48.314;11.562;2022-12-11T09:59:24;23.27;;;17.63;;
36585;SDS011;22591;48.314;11.562;2022-12-11T10:02:32;24.17;;;18.92;;
36585;SDS011;22591;48.314;11.562;2022-12-11T10:10:34;22.60;;;17.95;;
36585;SDS011;22591;48.314;11.562;2022-12-11T10:18:20;26.80;;;20.25;;
36585;SDS011;22591;48.314;11.562;2022-12-11T10:20:49;26.00;;;19.17;;
36585;SDS011;22591;48.314;11.562;2022-12-11T10:23:27;22.30;;;17.63;;
36585;SDS011;22591;48.314;11.562;2022-12-11T10:26:15;34.67;;;22.45;;
36585;SDS011;22591;48.314;11.562;2022-12-11T10:28:43;26.60;;;19.23;;
36585;SDS011;22591;48.314;11.562;2022-12-11T10:36:12;31.40;;;22.15;;
36585;SDS011;22591;48.314;11.562;2022-12-11T10:38:43;30.70;;;21.13;;
36585;SDS011;22591;48.314;11.562;2022-12-11T10:41:11;27.85;;;20.52;;
36585;SDS011;22591;48.314;11.562;2022-12-11T10:43:42;25.80;;;18.90;;
36585;SDS011;22591;48.314;11.562;2022-12-11T10:46:17;30.00;;;20.85;;
36585;SDS011;22591;48.314;11.562;2022-12-11T10:54:02;24.90;;;19.13;;
36585;SDS011;22591;48.314;11.562;2022-12-11T10:56:47;24.80;;;18.15;;
36585;SDS011;22591;48.314;11.562;2022-12-11T11:04:50;23.48;;;17.73;;
36585;SDS011;22591;48.314;11.562;2022-12-11T11:09:42;23.20;;;17.50;;
36585;SDS011;22591;48.314;11.562;2022-12-11T11:14:44;20.10;;;15.38;;
36585;SDS011;22591;48.314;11.562;2022-12-11T11:17:13;20.50;;;16.25;;
36585;SDS011;22591;48.314;11.562;2022-12-11T11:19:40;21.80;;;16.75;;
36585;SDS011;22591;48.314;11.562;2022-12-11T11:22:16;22.00;;;16.50;;
36585;SDS011;22591;48.314;11.562;2022-12-11T11:24:53;17.73;;;14.13;;
36585;SDS011;22591;48.314;11.562;2022-12-11T11:27:33;14.07;;;12.00;;
36585;SDS011;22591;48.314;11.562;2022-12-11T11:30:30;19.05;;;14.68;;
36585;SDS011;22591;48.314;11.562;2022-12-11T11:33:03;21.65;;;17.30;;
36585;SDS011;22591;48.314;11.562;2022-12-11T11:35:36;21.73;;;16.10;;
36585;SDS011;22591;48.314;11.562;2022-12-11T11:40:37;18.20;;;14.07;;
36585;SDS011;22591;48.314;11.562;2022-12-11T11:46:02;15.23;;;12.52;;
36585;SDS011;22591;48.314;11.562;2022-12-11T11:51:13;14.90;;;12.50;;
36585;SDS011;22591;48.314;11.562;2022-12-11T11:53:47;13.45;;;12.02;;
36585;SDS011;22591;48.314;11.562;2022-12-11T11:59:11;13.65;;;12.20;;
36585;SDS011;22591;48.314;11.562;2022-12-11T12:01:43;14.70;;;11.57;;
36585;SDS011;22591;48.314;11.562;2022-12-11T12:04:09;10.07;;;8.93;;
36585;SDS011;22591;48.314;11.562;2022-12-11T12:14:48;15.15;;;11.75;;
36585;SDS011;22591;48.314;11.562;2022-12-11T12:25:38;17.40;;;12.70;;
36585;SDS011;22591;48.314;11.562;2022-12-11T12:28:16;20.02;;;15.30;;
36585;SDS011;22591;48.314;11.562;2022-12-11T12:42:06;14.82;;;12.45;;
36585;SDS011;22591;48.314;11.562;2022-12-11T12:47:32;12.23;;;10.93;;
36585;SDS011;22591;48.314;11.562;2022-12-11T12:50:00;12.18;;;9.75;;
36585;SDS011;22591;48.314;11.562;2022-12-11T12:52:31;11.55;;;10.32;;
36585;SDS011;22591;48.314;11.562;2022-12-11T12:57:41;12.52;;;9.82;;
36585;SDS011;22591;48.314;11.562;2022-12-11T13:00:40;11.85;;;8.93;;
36585;SDS011;22591;48.314;11.562;2022-12-11T13:03:13;13.30;;;10.13;;
36585;SDS011;22591;48.314;11.562;2022-12-11T13:05:43;12.35;;;10.20;;
36585;SDS011;22591;48.314;11.562;2022-12-11T13:08:22;12.23;;;10.77;;
36585;SDS011;22591;48.314;11.562;2022-12-11T13:11:02;20.17;;;12.60;;
36585;SDS011;22591;48.314;11.562;2022-12-11T13:13:35;17.88;;;13.63;;
36585;SDS011;22591;48.314;11.562;2022-12-11T13:16:26;16.90;;;12.25;;
36585;SDS011;22591;48.314;11.562;2022-12-11T13:18:58;20.65;;;15.13;;
36585;SDS011;22591;48.314;11.562;2022-12-11T13:23:51;20.13;;;14.57;;
36585;SDS011;22591;48.314;11.562;2022-12-11T13:26:26;23.27;;;15.80;;
36585;SDS011;22591;48.314;11.562;2022-12-11T13:28:53;22.40;;;17.02;;
36585;SDS011;22591;48.314;11.562;2022-12-11T13:33:46;24.15;;;17.05;;
36585;SDS011;22591;48.314;11.562;2022-12-11T13:39:05;24.05;;;16.27;;
36585;SDS011;22591;48.314;11.562;2022-12-11T13:41:39;20.58;;;15.65;;
36585;SDS011;22591;48.314;11.562;2022-12-11T13:44:11;22.02;;;16.85;;
36585;SDS011;22591;48.314;11.562;2022-12-11T13:46:43;24.67;;;17.83;;
36585;SDS011;22591;48.314;11.562;2022-12-11T13:49:16;22.92;;;16.75;;
36585;SDS011;22591;48.314;11.562;2022-12-11T13:52:19;23.63;;;17.30;;
36585;SDS011;22591;48.314;11.562;2022-12-11T13:54:48;22.55;;;16.88;;
36585;SDS011;22591;48.314;11.562;2022-12-11T13:57:18;25.80;;;16.52;;
36585;SDS011;22591;48.314;11.562;2022-12-11T13:59:53;19.80;;;15.38;;
36585;SDS011;22591;48.314;11.562;2022-12-11T14:02:22;21.45;;;14.68;;
36585;SDS011;22591;48.314;11.562;2022-12-11T14:05:06;20.25;;;15.35;;
36585;SDS011;22591;48.314;11.562;2022-12-11T14:07:45;19.10;;;14.00;;
36585;SDS011;22591;48.314;11.562;2022-12-11T14:12:57;17.52;;;14.00;;
36585;SDS011;22591;48.314;11.562;2022-12-11T14:15:30;17.23;;;14.00;;
36585;SDS011;22591;48.314;11.562;2022-12-11T14:17:57;16.13;;;13.25;;
36585;SDS011;22591;48.314;11.562;2022-12-11T14:20:42;18.33;;;14.68;;
36585;SDS011;22591;48.314;11.562;2022-12-11T14:23:21;14.85;;;12.50;;
36585;SDS011;22591;48.314;11.562;2022-12-11T14:25:52;17.48;;;13.18;;
36585;SDS011;22591;48.314;11.562;2022-12-11T14:28:23;19.17;;;12.68;;
36585;SDS011;22591;48.314;11.562;2022-12-11T14:30:52;16.50;;;12.93;;
36585;SDS011;22591;48.314;11.562;2022-12-11T14:33:21;13.23;;;11.38;;
36585;SDS011;22591;48.314;11.562;2022-12-11T14:35:49;14.60;;;12.32;;
36585;SDS011;22591;48.314;11.562;2022-12-11T14:38:19;19.00;;;13.77;;
36585;SDS011;22591;48.314;11.562;2022-12-11T14:41:00;17.45;;;13.90;;
36585;SDS011;22591;48.314;11.562;2022-12-11T14:43:32;13.63;;;11.95;;
36585;SDS011;22591;48.314;11.562;2022-12-11T14:46:06;15.95;;;13.52;;
36585;SDS011;22591;48.314;11.562;2022-12-11T14:48:37;12.55;;;10.55;;
36585;SDS011;22591;48.314;11.562;2022-12-11T14:51:09;7.72;;;6.88;;
36585;SDS011;22591;48.314;11.562;2022-12-11T14:53:41;3.40;;;3.10;;
36585;SDS011;22591;48.314;11.562;2022-12-11T14:56:13;3.97;;;2.83;;
36585;SDS011;22591;48.314;11.562;2022-12-11T14:58:43;3.22;;;2.92;;
36585;SDS011;22591;48.314;11.562;2022-12-11T15:01:22;3.15;;;2.95;;
36585;SDS011;22591;48.314;11.562;2022-12-11T15:06:43;5.10;;;4.70;;
36585;SDS011;22591;48.314;11.562;2022-12-11T15:09:23;6.10;;;5.50;;
36585;SDS011;22591;48.314;11.562;2022-12-11T15:11:54;12.63;;;7.95;;
36585;SDS011;22591;48.314;11.562;2022-12-11T15:14:21;12.55;;;9.48;;
36585;SDS011;22591;48.314;11.562;2022-12-11T15:16:49;11.23;;;9.82;;
36585;SDS011;22591;48.314;11.562;2022-12-11T15:19:25;16.30;;;12.98;;
36585;SDS011;22591;48.314;11.562;2022-12-11T15:21:59;19.08;;;13.05;;
36585;SDS011;22591;48.314;11.562;2022-12-11T15:24:33;23.75;;;15.43;;
36585;SDS011;22591;48.314;11.562;2022-12-11T15:27:02;18.50;;;13.60;;
36585;SDS011;22591;48.314;11.562;2022-12-11T15:32:20;24.20;;;18.67;;
36585;SDS011;22591;48.314;11.562;2022-12-11T15:34:47;35.00;;;22.27;;
36585;SDS011;22591;48.314;11.562;2022-12-11T15:39:51;34.17;;;21.77;;
36585;SDS011;22591;48.314;11.562;2022-12-11T15:44:59;17.85;;;14.10;;
36585;SDS011;22591;48.314;11.562;2022-12-11T15:47:27;14.70;;;12.43;;
36585;SDS011;22591;48.314;11.562;2022-12-11T15:49:58;17.60;;;12.90;;
36585;SDS011;22591;48.314;11.562;2022-12-11T15:52:36;16.33;;;11.67;;
36585;SDS011;22591;48.314;11.562;2022-12-11T15:55:02;17.67;;;13.50;;
36585;SDS011;22591;48.314;11.562;2022-12-11T15:57:28;16.33;;;12.27;;
36585;SDS011;22591;48.314;11.562;2022-12-11T15:59:54;16.27;;;13.47;;
36585;SDS011;22591;48.314;11.562;2022-12-11T16:02:20;20.95;;;15.55;;
36585;SDS011;22591;48.314;11.562;2022-12-11T16:04:45;20.33;;;15.17;;
36585;SDS011;22591;48.314;11.562;2022-12-11T16:07:15;36.03;;;23.07;;
36585;SDS011;22591;48.314;11.562;2022-12-11T16:09:42;36.97;;;27.08;;
36585;SDS011;22591;48.314;11.562;2022-12-11T16:12:08;61.77;;;41.63;;
36585;SDS011;22591;48.314;11.562;2022-12-11T16:14:34;58.60;;;39.63;;
36585;SDS011;22591;48.314;11.562;2022-12-11T16:17:03;49.60;;;40.45;;
36585;SDS011;22591;48.314;11.562;2022-12-11T16:19:31;28.33;;;23.20;;
36585;SDS011;22591;48.314;11.562;2022-12-11T16:21:56;24.67;;;19.90;;